Time,TemperatureF,DewpointF,PressureIn,WindDirection,WindDirectionDegrees,WindSpeedMPH,WindSpeedGustMPH,Humidity,HourlyPrecipIn,Conditions,Clouds,dailyrainin,SolarRadiationWatts/m^2,SoftwareType,DateUTC
2013-01-27 00:04:00,52.2,51.1,30.19,NNE,33,0.0,0.0,96,0.00,,,0.00,0.0,meteohub,2013-01-27 06:04:00,
2013-01-27 00:09:00,52.0,50.9,30.19,NNE,33,0.0,0.0,96,0.00,,,0.00,0.0,meteohub,2013-01-27 06:09:00,
2013-01-27 00:14:00,52.0,50.9,30.19,NNE,33,0.0,0.0,96,0.00,,,0.00,0.0,meteohub,2013-01-27 06:14:00,
2013-01-27 00:19:00,51.6,50.5,30.19,NNE,33,0.0,0.0,96,0.00,,,0.00,0.0,meteohub,2013-01-27 06:19:00,
2013-01-27 00:24:00,52.0,50.9,30.19,NNE,33,0.0,0.0,96,0.00,,,0.00,0.0,meteohub,2013-01-27 06:24:00,
2013-01-27 00:29:00,52.0,50.9,30.19,NNE,33,0.0,0.0,96,0.00,,,0.00,0.0,meteohub,2013-01-27 06:29:00,
2013-01-27 00:34:00,51.8,50.7,30.19,NNE,33,0.0,0.0,96,0.00,,,0.00,0.0,meteohub,2013-01-27 06:34:00,
2013-01-27 00:39:00,51.6,50.5,30.19,NNE,33,0.0,0.0,96,0.00,,,0.00,0.0,meteohub,2013-01-27 06:39:00,
2013-01-27 00:44:00,51.4,50.4,30.19,NNE,33,0.0,0.0,96,0.00,,,0.00,0.0,meteohub,2013-01-27 06:44:00,
2013-01-27 00:49:00,51.6,50.5,30.19,NNE,33,0.0,0.0,96,0.00,,,0.00,0.0,meteohub,2013-01-27 06:49:00,
2013-01-27 00:54:00,51.4,50.4,30.19,NNE,33,0.0,0.0,96,0.00,,,0.00,0.0,meteohub,2013-01-27 06:54:00,
2013-01-27 00:59:00,51.4,50.4,30.19,NNE,33,0.0,0.0,96,0.00,,,0.00,0.0,meteohub,2013-01-27 06:59:00,
2013-01-27 01:04:00,51.4,50.4,30.19,NNE,33,0.0,0.0,96,0.00,,,0.00,0.0,meteohub,2013-01-27 07:04:00,
2013-01-27 01:13:00,51.4,50.4,30.19,NNE,33,0.0,0.0,96,0.00,,,0.00,0.0,meteohub,2013-01-27 07:13:00,
2013-01-27 01:18:00,51.4,50.5,30.18,NNE,33,0.0,0.0,97,0.00,,,0.00,0.0,meteohub,2013-01-27 07:18:00,
2013-01-27 01:23:00,51.4,50.5,30.18,NNE,33,0.0,0.0,97,0.00,,,0.00,0.0,meteohub,2013-01-27 07:23:00,
2013-01-27 01:28:00,51.6,50.7,30.19,NNE,33,0.0,0.0,97,0.00,,,0.00,0.0,meteohub,2013-01-27 07:28:00,
2013-01-27 01:33:00,51.4,50.5,30.19,NNE,33,0.0,0.0,97,0.00,,,0.00,0.0,meteohub,2013-01-27 07:33:00,
2013-01-27 01:38:00,51.4,50.5,30.19,NNE,33,0.0,0.0,97,0.00,,,0.00,0.0,meteohub,2013-01-27 07:38:00,
2013-01-27 01:43:00,51.3,50.4,30.19,NNE,33,0.0,0.0,97,0.00,,,0.00,0.0,meteohub,2013-01-27 07:43:00,
2013-01-27 01:48:00,51.1,50.0,30.19,NNE,33,0.0,0.0,96,0.00,,,0.00,0.0,meteohub,2013-01-27 07:48:00,
2013-01-27 01:53:00,51.1,50.2,30.19,NNE,33,0.0,0.0,97,0.00,,,0.00,0.0,meteohub,2013-01-27 07:53:00,
2013-01-27 01:58:00,51.1,50.2,30.19,NNE,33,0.0,0.0,97,0.00,,,0.00,0.0,meteohub,2013-01-27 07:58:00,
2013-01-27 02:03:00,50.9,50.0,30.19,NNE,33,0.0,0.0,97,0.00,,,0.00,0.0,meteohub,2013-01-27 08:03:00,
2013-01-27 02:08:00,50.9,50.0,30.19,NNE,33,0.0,0.0,97,0.00,,,0.00,0.0,meteohub,2013-01-27 08:08:00,
2013-01-27 02:14:00,50.9,50.0,30.19,NNE,33,0.0,0.0,97,0.00,,,0.00,0.0,meteohub,2013-01-27 08:14:00,
2013-01-27 02:18:00,50.7,49.8,30.19,NNE,33,0.0,0.0,97,0.00,,,0.00,0.0,meteohub,2013-01-27 08:18:00,
2013-01-27 02:23:00,50.5,49.6,30.19,NNE,33,0.0,0.0,97,0.00,,,0.00,0.0,meteohub,2013-01-27 08:23:00,
2013-01-27 02:28:00,50.4,49.5,30.19,NNE,33,0.0,0.0,97,0.00,,,0.00,0.0,meteohub,2013-01-27 08:28:00,
2013-01-27 02:34:00,50.5,49.6,30.19,NNE,33,0.0,0.0,97,0.00,,,0.00,0.0,meteohub,2013-01-27 08:34:00,
2013-01-27 02:39:00,50.5,49.6,30.19,NNE,33,0.0,0.0,97,0.00,,,0.00,0.0,meteohub,2013-01-27 08:39:00,
2013-01-27 02:44:00,50.4,49.5,30.18,NNE,33,0.0,0.0,97,0.00,,,0.00,0.0,meteohub,2013-01-27 08:44:00,
2013-01-27 02:49:00,50.2,49.3,30.18,NNE,33,0.0,0.0,97,0.00,,,0.00,0.0,meteohub,2013-01-27 08:49:00,
2013-01-27 02:54:00,50.2,49.3,30.18,NNE,33,0.0,0.0,97,0.00,,,0.00,0.0,meteohub,2013-01-27 08:54:00,
2013-01-27 02:59:00,50.4,49.5,30.17,NNE,33,0.0,0.0,97,0.00,,,0.00,0.0,meteohub,2013-01-27 08:59:00,
2013-01-27 03:04:00,50.5,49.6,30.18,NNE,33,0.0,0.0,97,0.00,,,0.00,0.0,meteohub,2013-01-27 09:04:00,
2013-01-27 03:09:00,50.7,49.8,30.18,NNE,33,0.0,0.0,97,0.00,,,0.00,0.0,meteohub,2013-01-27 09:09:00,
2013-01-27 03:14:00,50.7,49.8,30.17,NNE,33,0.0,0.0,97,0.00,,,0.00,0.0,meteohub,2013-01-27 09:14:00,
2013-01-27 03:19:00,50.9,50.0,30.17,NNE,33,0.0,0.0,97,0.00,,,0.00,0.0,meteohub,2013-01-27 09:19:00,
2013-01-27 03:24:00,50.9,50.0,30.17,NNE,33,0.0,0.0,97,0.00,,,0.00,0.0,meteohub,2013-01-27 09:24:00,
2013-01-27 03:29:00,50.9,50.0,30.17,NNE,33,0.0,0.0,97,0.00,,,0.00,0.0,meteohub,2013-01-27 09:29:00,
2013-01-27 03:34:00,50.9,50.0,30.17,NNE,33,0.0,0.0,97,0.00,,,0.00,0.0,meteohub,2013-01-27 09:34:00,
2013-01-27 03:39:00,50.9,50.0,30.17,NNE,33,0.0,0.0,97,0.00,,,0.00,0.0,meteohub,2013-01-27 09:39:00,
2013-01-27 03:44:00,51.1,50.2,30.17,NNE,33,0.0,1.0,97,0.00,,,0.00,0.0,meteohub,2013-01-27 09:44:00,
2013-01-27 03:49:00,50.9,50.0,30.17,NNE,33,0.0,1.0,97,0.00,,,0.00,0.0,meteohub,2013-01-27 09:49:00,
2013-01-27 03:54:00,50.7,49.8,30.17,NNE,33,0.0,1.0,97,0.00,,,0.00,0.0,meteohub,2013-01-27 09:54:00,
2013-01-27 03:59:00,50.7,49.8,30.17,NNE,33,0.0,1.0,97,0.00,,,0.00,0.0,meteohub,2013-01-27 09:59:00,
2013-01-27 04:04:00,50.7,49.8,30.17,NNE,33,0.0,1.0,97,0.00,,,0.00,0.0,meteohub,2013-01-27 10:04:00,
2013-01-27 04:09:00,50.7,49.8,30.17,NNE,33,0.0,1.0,97,0.00,,,0.00,0.0,meteohub,2013-01-27 10:09:00,
2013-01-27 04:14:00,50.7,49.8,30.17,NNE,33,0.0,0.0,97,0.00,,,0.00,0.0,meteohub,2013-01-27 10:14:00,
2013-01-27 04:19:00,50.7,49.8,30.16,NNE,33,0.0,0.0,97,0.00,,,0.00,0.0,meteohub,2013-01-27 10:19:00,
2013-01-27 04:24:00,50.7,49.8,30.17,NNE,33,0.0,1.0,97,0.00,,,0.00,0.0,meteohub,2013-01-27 10:24:00,
2013-01-27 04:29:00,50.7,49.8,30.16,NNE,33,0.0,1.0,97,0.00,,,0.00,0.0,meteohub,2013-01-27 10:29:00,
2013-01-27 04:34:00,50.7,49.8,30.16,NNE,33,0.0,1.0,97,0.00,,,0.00,0.0,meteohub,2013-01-27 10:34:00,
2013-01-27 04:39:00,50.7,49.8,30.16,NNE,33,0.0,1.0,97,0.00,,,0.00,0.0,meteohub,2013-01-27 10:39:00,
2013-01-27 04:44:00,50.7,49.8,30.16,NNE,33,0.0,0.0,97,0.00,,,0.00,0.0,meteohub,2013-01-27 10:44:00,
2013-01-27 04:49:00,50.5,49.6,30.16,NNE,33,0.0,0.0,97,0.00,,,0.00,0.0,meteohub,2013-01-27 10:49:00,
2013-01-27 04:54:00,50.4,49.5,30.17,NNE,33,0.0,0.0,97,0.00,,,0.00,0.0,meteohub,2013-01-27 10:54:00,
2013-01-27 04:59:00,50.2,49.3,30.17,NNE,33,0.0,0.0,97,0.00,,,0.00,0.0,meteohub,2013-01-27 10:59:00,
2013-01-27 05:04:00,50.0,49.1,30.17,NNE,33,0.0,0.0,97,0.00,,,0.00,0.0,meteohub,2013-01-27 11:04:00,
2013-01-27 05:09:00,49.8,48.9,30.17,NNE,33,0.0,0.0,97,0.00,,,0.00,0.0,meteohub,2013-01-27 11:09:00,
2013-01-27 05:14:00,49.8,48.9,30.17,NNE,33,0.0,0.0,97,0.00,,,0.00,0.0,meteohub,2013-01-27 11:14:00,
2013-01-27 05:19:00,49.6,48.7,30.17,NNE,33,0.0,0.0,97,0.00,,,0.00,0.0,meteohub,2013-01-27 11:19:00,
2013-01-27 05:24:00,49.6,48.7,30.16,NNE,33,0.0,0.0,97,0.00,,,0.00,0.0,meteohub,2013-01-27 11:24:00,
2013-01-27 05:29:00,49.5,48.6,30.17,NNE,33,0.0,0.0,97,0.00,,,0.00,0.0,meteohub,2013-01-27 11:29:00,
2013-01-27 05:34:00,49.5,48.6,30.17,NNE,33,0.0,0.0,97,0.00,,,0.00,0.0,meteohub,2013-01-27 11:34:00,
2013-01-27 05:39:00,49.3,48.4,30.17,NNE,33,0.0,0.0,97,0.00,,,0.00,0.0,meteohub,2013-01-27 11:39:00,
2013-01-27 05:44:00,49.5,48.6,30.17,NNE,33,0.0,0.0,97,0.00,,,0.00,0.0,meteohub,2013-01-27 11:44:00,
2013-01-27 05:49:00,49.3,48.4,30.17,NNE,33,0.0,0.0,97,0.00,,,0.00,0.0,meteohub,2013-01-27 11:49:00,
2013-01-27 05:54:00,49.3,48.4,30.17,NNE,33,0.0,0.0,97,0.00,,,0.00,0.0,meteohub,2013-01-27 11:54:00,
2013-01-27 05:59:00,49.3,48.4,30.17,NNE,33,0.0,0.0,97,0.00,,,0.00,0.0,meteohub,2013-01-27 11:59:00,
2013-01-27 06:04:00,49.3,48.4,30.17,NNE,33,0.0,0.0,97,0.00,,,0.00,0.0,meteohub,2013-01-27 12:04:00,
2013-01-27 06:09:00,49.3,48.4,30.17,NNE,33,0.0,0.0,97,0.00,,,0.00,0.0,meteohub,2013-01-27 12:09:00,
2013-01-27 06:14:00,49.3,48.4,30.17,NNE,33,0.0,0.0,97,0.00,,,0.00,0.0,meteohub,2013-01-27 12:14:00,
2013-01-27 06:19:00,49.3,48.4,30.18,NNE,33,0.0,0.0,97,0.00,,,0.00,0.0,meteohub,2013-01-27 12:19:00,
2013-01-27 06:24:00,49.3,48.4,30.18,NNE,33,0.0,0.0,97,0.00,,,0.00,0.0,meteohub,2013-01-27 12:24:00,
2013-01-27 06:29:00,49.3,48.4,30.18,NNE,33,0.0,0.0,97,0.00,,,0.00,0.0,meteohub,2013-01-27 12:29:00,
2013-01-27 06:34:00,49.3,48.4,30.18,NNE,33,0.0,0.0,97,0.00,,,0.00,0.0,meteohub,2013-01-27 12:34:00,
2013-01-27 06:39:00,49.3,48.4,30.18,NNE,33,0.0,0.0,97,0.00,,,0.00,0.0,meteohub,2013-01-27 12:39:00,
2013-01-27 06:44:00,49.3,48.4,30.18,NNE,33,0.0,0.0,97,0.00,,,0.00,0.0,meteohub,2013-01-27 12:44:00,
2013-01-27 06:49:00,49.3,48.4,30.18,NNE,33,0.0,0.0,97,0.00,,,0.00,0.0,meteohub,2013-01-27 12:49:00,
2013-01-27 06:54:00,49.3,48.4,30.18,NNE,33,0.0,0.0,97,0.00,,,0.00,0.0,meteohub,2013-01-27 12:54:00,
2013-01-27 06:59:00,49.3,48.4,30.19,NNE,33,0.0,0.0,97,0.00,,,0.00,5.0,meteohub,2013-01-27 12:59:00,
2013-01-27 07:05:00,49.3,48.4,30.19,NNE,33,0.0,0.0,97,0.00,,,0.00,7.0,meteohub,2013-01-27 13:05:00,
2013-01-27 07:10:00,49.5,48.6,30.19,NNE,33,0.0,0.0,97,0.00,,,0.00,11.0,meteohub,2013-01-27 13:10:00,
2013-01-27 07:15:00,49.5,48.6,30.19,NNE,33,0.0,0.0,97,0.00,,,0.00,16.0,meteohub,2013-01-27 13:15:00,
2013-01-27 07:20:00,49.5,48.6,30.19,NNE,33,0.0,0.0,97,0.00,,,0.00,19.0,meteohub,2013-01-27 13:20:00,
2013-01-27 07:25:00,49.6,48.7,30.19,NNE,33,0.0,0.0,97,0.00,,,0.00,23.0,meteohub,2013-01-27 13:25:00,
2013-01-27 07:30:00,49.8,49.3,30.19,NNE,33,0.0,0.0,98,0.00,,,0.00,26.0,meteohub,2013-01-27 13:30:00,
2013-01-27 07:35:00,50.0,49.5,30.20,NNE,33,0.0,0.0,98,0.00,,,0.00,26.0,meteohub,2013-01-27 13:35:00,
2013-01-27 07:40:00,50.2,49.3,30.20,NNE,33,0.0,0.0,97,0.00,,,0.00,32.0,meteohub,2013-01-27 13:40:00,
2013-01-27 07:45:00,50.2,49.3,30.20,NNE,33,0.0,0.0,97,0.00,,,0.00,46.0,meteohub,2013-01-27 13:45:00,
2013-01-27 07:50:00,50.4,49.5,30.20,NNE,33,0.0,0.0,97,0.00,,,0.00,67.0,meteohub,2013-01-27 13:50:00,
2013-01-27 07:55:00,50.5,50.0,30.20,NNE,33,0.0,0.0,98,0.00,,,0.00,74.0,meteohub,2013-01-27 13:55:00,
2013-01-27 08:00:00,50.7,50.2,30.20,NNE,33,0.0,0.0,98,0.00,,,0.00,105.0,meteohub,2013-01-27 14:00:00,
2013-01-27 08:05:00,50.9,50.4,30.20,NNE,33,0.0,0.0,98,0.00,,,0.00,135.0,meteohub,2013-01-27 14:05:00,
2013-01-27 08:10:00,51.3,50.7,30.20,NNE,33,0.0,0.0,98,0.00,,,0.00,93.0,meteohub,2013-01-27 14:10:00,
2013-01-27 08:15:00,52.0,51.4,30.20,NNE,32,0.0,1.0,98,0.00,,,0.00,158.0,meteohub,2013-01-27 14:15:00,
2013-01-27 08:20:00,52.9,52.3,30.21,NNE,33,0.0,1.0,98,0.00,,,0.00,134.0,meteohub,2013-01-27 14:20:00,
2013-01-27 08:25:00,53.4,52.9,30.21,NNE,30,0.0,1.0,98,0.00,,,0.00,167.0,meteohub,2013-01-27 14:25:00,
2013-01-27 08:30:00,54.1,53.6,30.21,NE,40,0.0,2.0,98,0.00,,,0.00,193.0,meteohub,2013-01-27 14:30:00,
2013-01-27 08:35:00,54.5,54.0,30.21,NE,37,1.0,2.0,98,0.00,,,0.00,227.0,meteohub,2013-01-27 14:35:00,
2013-01-27 08:40:00,55.0,54.5,30.21,NE,36,0.0,2.0,98,0.00,,,0.00,272.0,meteohub,2013-01-27 14:40:00,
2013-01-27 08:45:00,55.9,55.4,30.21,NNE,22,0.0,3.0,98,0.00,,,0.00,246.0,meteohub,2013-01-27 14:45:00,
2013-01-27 08:50:00,56.5,55.9,30.21,NNE,28,0.0,3.0,98,0.00,,,0.00,165.0,meteohub,2013-01-27 14:50:00,
2013-01-27 08:55:00,56.8,56.3,30.21,NE,42,2.0,3.0,98,0.00,,,0.00,360.0,meteohub,2013-01-27 14:55:00,
2013-01-27 09:00:00,57.6,57.0,30.21,NNE,31,0.0,4.0,98,0.00,,,0.00,148.0,meteohub,2013-01-27 15:00:00,
2013-01-27 09:05:00,58.3,57.7,30.21,ENE,63,0.0,4.0,98,0.00,,,0.00,139.0,meteohub,2013-01-27 15:05:00,
2013-01-27 09:10:00,59.0,58.5,30.21,ESE,106,1.0,4.0,98,0.00,,,0.00,279.0,meteohub,2013-01-27 15:10:00,
2013-01-27 09:15:00,59.0,58.5,30.21,ENE,71,0.0,4.0,98,0.00,,,0.00,274.0,meteohub,2013-01-27 15:15:00,
2013-01-27 09:20:00,59.5,58.6,30.21,NE,49,0.0,9.0,97,0.00,,,0.00,396.0,meteohub,2013-01-27 15:20:00,
2013-01-27 09:25:00,60.4,59.5,30.21,ENE,71,1.0,9.0,97,0.00,,,0.00,380.0,meteohub,2013-01-27 15:25:00,
2013-01-27 09:30:00,61.0,59.5,30.22,North,7,1.0,9.0,95,0.00,,,0.00,172.0,meteohub,2013-01-27 15:30:00,
2013-01-27 09:35:00,61.5,59.5,30.21,NE,36,0.0,7.0,93,0.00,,,0.00,264.0,meteohub,2013-01-27 15:35:00,
2013-01-27 09:40:00,61.9,59.2,30.22,East,94,3.0,7.0,91,0.00,,,0.00,146.0,meteohub,2013-01-27 15:40:00,
2013-01-27 09:45:00,62.1,59.2,30.21,East,79,0.0,7.0,90,0.00,,,0.00,178.0,meteohub,2013-01-27 15:45:00,
2013-01-27 09:50:00,63.1,59.9,30.21,NNE,22,0.0,8.0,89,0.00,,,0.00,506.0,meteohub,2013-01-27 15:50:00,
2013-01-27 09:55:00,64.0,60.1,30.22,North,352,7.0,8.0,87,0.00,,,0.00,513.0,meteohub,2013-01-27 15:55:00,
2013-01-27 10:00:00,64.9,60.3,30.22,NNE,24,4.0,11.0,85,0.00,,,0.00,392.0,meteohub,2013-01-27 16:00:00,
2013-01-27 10:05:00,65.1,60.1,30.22,East,79,1.0,11.0,84,0.00,,,0.00,517.0,meteohub,2013-01-27 16:05:00,
2013-01-27 10:11:00,65.3,59.7,30.22,NNE,15,4.0,11.0,82,0.00,,,0.00,446.0,meteohub,2013-01-27 16:11:00,
2013-01-27 10:16:00,65.5,59.9,30.22,East,83,2.0,7.0,82,0.00,,,0.00,512.0,meteohub,2013-01-27 16:16:00,
2013-01-27 10:21:00,65.5,59.5,30.22,NNE,27,3.0,7.0,81,0.00,,,0.00,197.0,meteohub,2013-01-27 16:21:00,
2013-01-27 10:26:00,65.7,60.1,30.22,ENE,66,0.0,7.0,82,0.00,,,0.00,362.0,meteohub,2013-01-27 16:26:00,
2013-01-27 10:31:00,66.0,60.1,30.22,NNE,22,4.0,6.0,81,0.00,,,0.00,262.0,meteohub,2013-01-27 16:31:00,
2013-01-27 10:36:00,66.4,60.4,30.22,NNE,15,3.0,6.0,81,0.00,,,0.00,427.0,meteohub,2013-01-27 16:36:00,
2013-01-27 10:41:00,67.3,61.0,30.22,NE,42,0.0,9.0,80,0.00,,,0.00,461.0,meteohub,2013-01-27 16:41:00,
2013-01-27 10:46:00,67.8,60.6,30.22,East,89,0.0,9.0,78,0.00,,,0.00,381.0,meteohub,2013-01-27 16:46:00,
2013-01-27 10:51:00,68.5,61.0,30.21,East,90,4.0,9.0,77,0.00,,,0.00,461.0,meteohub,2013-01-27 16:51:00,
2013-01-27 10:56:00,69.3,61.3,30.21,NE,40,3.0,7.0,76,0.00,,,0.00,431.0,meteohub,2013-01-27 16:56:00,
2013-01-27 11:01:00,69.6,61.3,30.21,NE,42,3.0,7.0,75,0.00,,,0.00,461.0,meteohub,2013-01-27 17:01:00,
2013-01-27 11:06:00,70.3,61.7,30.21,ENE,68,3.0,7.0,74,0.00,,,0.00,464.0,meteohub,2013-01-27 17:06:00,
2013-01-27 11:11:00,70.7,61.7,30.21,NNE,30,0.0,12.0,73,0.00,,,0.00,452.0,meteohub,2013-01-27 17:11:00,
2013-01-27 11:16:00,71.2,61.7,30.21,NE,44,2.0,12.0,72,0.00,,,0.00,483.0,meteohub,2013-01-27 17:16:00,
2013-01-27 11:21:00,71.8,61.9,30.20,ESE,115,0.0,8.0,71,0.00,,,0.00,513.0,meteohub,2013-01-27 17:21:00,
2013-01-27 11:26:00,72.3,62.1,30.20,East,99,5.0,8.0,70,0.00,,,0.00,483.0,meteohub,2013-01-27 17:26:00,
2013-01-27 11:31:00,72.7,62.2,30.19,East,81,0.0,8.0,70,0.00,,,0.00,677.0,meteohub,2013-01-27 17:31:00,
2013-01-27 11:36:00,73.6,61.9,30.19,NE,37,4.0,7.0,67,0.00,,,0.00,722.0,meteohub,2013-01-27 17:36:00,
2013-01-27 11:41:00,74.1,62.1,30.19,ESE,111,2.0,7.0,66,0.00,,,0.00,701.0,meteohub,2013-01-27 17:41:00,
2013-01-27 11:46:00,74.3,60.8,30.19,ESE,121,5.0,7.0,63,0.00,,,0.00,712.0,meteohub,2013-01-27 17:46:00,
2013-01-27 11:51:00,74.8,61.3,30.18,SE,140,5.0,12.0,63,0.00,,,0.00,742.0,meteohub,2013-01-27 17:51:00,
2013-01-27 11:56:00,74.1,60.8,30.18,ENE,58,10.0,12.0,63,0.00,,,0.00,710.0,meteohub,2013-01-27 17:56:00,
2013-01-27 12:01:00,73.4,60.4,30.17,NE,40,3.0,13.0,64,0.00,,,0.00,151.0,meteohub,2013-01-27 18:01:00,
2013-01-27 12:06:00,74.1,60.8,30.17,NNE,23,3.0,13.0,63,0.00,,,0.00,731.0,meteohub,2013-01-27 18:06:00,
2013-01-27 12:11:00,73.9,61.0,30.17,ENE,77,0.0,13.0,64,0.00,,,0.00,733.0,meteohub,2013-01-27 18:11:00,
2013-01-27 12:16:00,74.8,61.3,30.17,ENE,78,0.0,13.0,63,0.00,,,0.00,698.0,meteohub,2013-01-27 18:16:00,
2013-01-27 12:21:00,75.0,61.2,30.16,NNE,19,2.0,13.0,62,0.00,,,0.00,694.0,meteohub,2013-01-27 18:21:00,
2013-01-27 12:26:00,74.7,60.8,30.16,ENE,72,3.0,13.0,62,0.00,,,0.00,705.0,meteohub,2013-01-27 18:26:00,
2013-01-27 12:31:00,74.1,60.3,30.16,NE,42,4.0,15.0,62,0.00,,,0.00,230.0,meteohub,2013-01-27 18:31:00,
2013-01-27 12:36:00,74.1,60.3,30.15,NNE,18,0.0,15.0,62,0.00,,,0.00,167.0,meteohub,2013-01-27 18:36:00,
2013-01-27 12:41:00,74.1,60.3,30.15,ESE,109,0.0,12.0,62,0.00,,,0.00,346.0,meteohub,2013-01-27 18:41:00,
2013-01-27 12:46:00,74.7,60.8,30.15,SE,129,4.0,12.0,62,0.00,,,0.00,185.0,meteohub,2013-01-27 18:46:00,
2013-01-27 12:51:00,74.8,60.4,30.15,SE,127,2.0,12.0,61,0.00,,,0.00,283.0,meteohub,2013-01-27 18:51:00,
2013-01-27 12:56:00,74.7,60.8,30.15,ESE,116,2.0,12.0,62,0.00,,,0.00,216.0,meteohub,2013-01-27 18:56:00,
2013-01-27 13:01:00,74.1,60.3,30.14,ESE,113,6.0,12.0,62,0.00,,,0.00,329.0,meteohub,2013-01-27 19:01:00,
2013-01-27 13:06:00,74.5,60.6,30.14,SE,130,3.0,12.0,62,0.00,,,0.00,216.0,meteohub,2013-01-27 19:06:00,
2013-01-27 13:11:00,74.5,59.7,30.14,SSE,158,8.0,12.0,60,0.00,,,0.00,190.0,meteohub,2013-01-27 19:11:00,
2013-01-27 13:16:00,73.9,59.7,30.14,ENE,76,5.0,12.0,61,0.00,,,0.00,221.0,meteohub,2013-01-27 19:16:00,
2013-01-27 13:21:00,74.5,60.1,30.14,ESE,106,0.0,12.0,61,0.00,,,0.00,190.0,meteohub,2013-01-27 19:21:00,
2013-01-27 13:26:00,74.3,59.9,30.13,East,88,0.0,11.0,61,0.00,,,0.00,200.0,meteohub,2013-01-27 19:26:00,
2013-01-27 13:31:00,74.7,60.3,30.13,SE,124,0.0,11.0,61,0.00,,,0.00,731.0,meteohub,2013-01-27 19:31:00,
2013-01-27 13:36:00,75.6,61.2,30.13,ENE,76,0.0,10.0,61,0.00,,,0.00,608.0,meteohub,2013-01-27 19:36:00,
2013-01-27 13:41:00,75.6,60.6,30.13,SSE,162,5.0,10.0,60,0.00,,,0.00,512.0,meteohub,2013-01-27 19:41:00,
2013-01-27 13:46:00,74.5,60.1,30.13,ESE,123,7.0,9.0,61,0.00,,,0.00,139.0,meteohub,2013-01-27 19:46:00,
2013-01-27 13:51:00,73.9,60.6,30.13,SE,140,2.0,9.0,63,0.00,,,0.00,169.0,meteohub,2013-01-27 19:51:00,
2013-01-27 13:56:00,73.8,60.4,30.13,East,96,5.0,11.0,63,0.00,,,0.00,195.0,meteohub,2013-01-27 19:56:00,
2013-01-27 14:02:00,73.9,60.6,30.13,SE,127,2.0,11.0,63,0.00,,,0.00,141.0,meteohub,2013-01-27 20:02:00,
2013-01-27 14:07:00,74.1,60.8,30.13,East,83,2.0,14.0,63,0.00,,,0.00,415.0,meteohub,2013-01-27 20:07:00,
2013-01-27 14:11:00,74.8,61.0,30.12,North,350,0.0,14.0,62,0.00,,,0.00,251.0,meteohub,2013-01-27 20:11:00,
2013-01-27 14:16:00,74.8,60.4,30.12,SE,125,3.0,11.0,61,0.00,,,0.00,183.0,meteohub,2013-01-27 20:16:00,
2013-01-27 14:22:00,74.5,60.6,30.13,East,94,5.0,11.0,62,0.00,,,0.00,148.0,meteohub,2013-01-27 20:22:00,
2013-01-27 14:27:00,73.9,60.6,30.12,ESE,117,4.0,12.0,63,0.00,,,0.00,146.0,meteohub,2013-01-27 20:27:00,
2013-01-27 14:32:00,74.1,60.8,30.12,ESE,113,6.0,12.0,63,0.00,,,0.00,195.0,meteohub,2013-01-27 20:32:00,
2013-01-27 14:37:00,74.8,61.0,30.12,SE,126,4.0,12.0,62,0.00,,,0.00,401.0,meteohub,2013-01-27 20:37:00,
2013-01-27 14:42:00,75.6,61.7,30.12,ESE,114,5.0,12.0,62,0.00,,,0.00,276.0,meteohub,2013-01-27 20:42:00,
2013-01-27 14:47:00,75.4,61.5,30.12,East,84,0.0,10.0,62,0.00,,,0.00,197.0,meteohub,2013-01-27 20:47:00,
2013-01-27 14:52:00,75.6,61.7,30.12,East,82,6.0,10.0,62,0.00,,,0.00,139.0,meteohub,2013-01-27 20:52:00,
2013-01-27 14:57:00,75.2,61.3,30.12,ESE,114,0.0,9.0,62,0.00,,,0.00,174.0,meteohub,2013-01-27 20:57:00,
2013-01-27 15:02:00,74.7,60.8,30.12,East,96,5.0,9.0,62,0.00,,,0.00,102.0,meteohub,2013-01-27 21:02:00,
2013-01-27 15:07:00,73.9,60.6,30.12,ESE,118,3.0,12.0,63,0.00,,,0.00,113.0,meteohub,2013-01-27 21:07:00,
2013-01-27 15:12:00,73.9,61.0,30.12,ESE,109,4.0,12.0,64,0.00,,,0.00,165.0,meteohub,2013-01-27 21:12:00,
2013-01-27 15:17:00,74.8,61.3,30.11,ESE,103,4.0,14.0,63,0.00,,,0.00,329.0,meteohub,2013-01-27 21:17:00,
2013-01-27 15:22:00,75.2,61.3,30.11,SE,125,1.0,14.0,62,0.00,,,0.00,141.0,meteohub,2013-01-27 21:22:00,
2013-01-27 15:27:00,74.7,61.2,30.11,ESE,119,0.0,10.0,63,0.00,,,0.00,111.0,meteohub,2013-01-27 21:27:00,
2013-01-27 15:32:00,74.5,61.0,30.12,NE,49,0.0,10.0,63,0.00,,,0.00,113.0,meteohub,2013-01-27 21:32:00,
2013-01-27 15:37:00,74.1,61.2,30.12,ENE,75,0.0,9.0,64,0.00,,,0.00,188.0,meteohub,2013-01-27 21:37:00,
2013-01-27 15:42:00,74.7,60.8,30.12,East,86,1.0,9.0,62,0.00,,,0.00,127.0,meteohub,2013-01-27 21:42:00,
2013-01-27 15:47:00,74.5,60.6,30.12,SSE,154,4.0,8.0,62,0.00,,,0.00,105.0,meteohub,2013-01-27 21:47:00,
2013-01-27 15:52:00,74.1,60.8,30.12,SE,125,3.0,8.0,63,0.00,,,0.00,141.0,meteohub,2013-01-27 21:52:00,
2013-01-27 15:57:00,73.9,61.0,30.11,SE,127,6.0,11.0,64,0.00,,,0.00,105.0,meteohub,2013-01-27 21:57:00,
2013-01-27 16:02:00,73.9,61.0,30.12,NNE,23,1.0,11.0,64,0.00,,,0.00,98.0,meteohub,2013-01-27 22:02:00,
2013-01-27 16:07:00,73.9,61.3,30.12,ESE,122,1.0,10.0,65,0.00,,,0.00,98.0,meteohub,2013-01-27 22:07:00,
2013-01-27 16:12:00,73.8,61.3,30.12,East,95,5.0,10.0,65,0.00,,,0.00,84.0,meteohub,2013-01-27 22:12:00,
2013-01-27 16:17:00,73.6,61.2,30.12,NNE,23,0.0,9.0,65,0.00,,,0.00,83.0,meteohub,2013-01-27 22:17:00,
2013-01-27 16:22:00,73.4,61.3,30.12,SE,146,1.0,9.0,66,0.00,,,0.00,77.0,meteohub,2013-01-27 22:22:00,
2013-01-27 16:27:00,73.0,61.5,30.12,East,93,0.0,9.0,67,0.00,,,0.00,72.0,meteohub,2013-01-27 22:27:00,
2013-01-27 16:32:00,72.9,61.3,30.12,NE,48,6.0,9.0,67,0.00,,,0.00,62.0,meteohub,2013-01-27 22:32:00,
2013-01-27 16:37:00,72.7,61.2,30.12,East,90,6.0,11.0,67,0.00,,,0.00,54.0,meteohub,2013-01-27 22:37:00,
2013-01-27 16:42:00,72.3,61.2,30.12,ESE,114,4.0,11.0,68,0.00,,,0.00,49.0,meteohub,2013-01-27 22:42:00,
2013-01-27 16:47:00,72.3,61.2,30.12,SE,137,3.0,7.0,68,0.00,,,0.00,44.0,meteohub,2013-01-27 22:47:00,
2013-01-27 16:52:00,72.1,61.3,30.12,East,86,8.0,8.0,69,0.00,,,0.00,40.0,meteohub,2013-01-27 22:52:00,
2013-01-27 16:57:00,72.0,61.2,30.12,SE,131,5.0,7.0,69,0.00,,,0.00,40.0,meteohub,2013-01-27 22:57:00,
2013-01-27 17:02:00,72.0,61.2,30.12,NE,48,0.0,7.0,69,0.00,,,0.00,33.0,meteohub,2013-01-27 23:02:00,
2013-01-27 17:07:00,71.8,61.0,30.13,SSE,158,6.0,13.0,69,0.00,,,0.00,28.0,meteohub,2013-01-27 23:07:00,
2013-01-27 17:12:00,71.6,60.8,30.13,East,89,2.0,13.0,69,0.00,,,0.00,26.0,meteohub,2013-01-27 23:12:00,
2013-01-27 17:17:00,71.2,61.0,30.13,East,81,0.0,11.0,70,0.00,,,0.00,25.0,meteohub,2013-01-27 23:17:00,
2013-01-27 17:22:00,71.2,61.3,30.12,ENE,71,0.0,11.0,71,0.00,,,0.00,18.0,meteohub,2013-01-27 23:22:00,
2013-01-27 17:27:00,71.1,61.2,30.12,NNE,22,1.0,6.0,71,0.00,,,0.00,7.0,meteohub,2013-01-27 23:27:00,
2013-01-27 17:32:00,70.9,61.0,30.12,ENE,63,1.0,6.0,71,0.00,,,0.00,0.0,meteohub,2013-01-27 23:32:00,
2013-01-27 17:37:00,70.7,61.2,30.13,East,96,0.0,10.0,72,0.00,,,0.00,0.0,meteohub,2013-01-27 23:37:00,
2013-01-27 17:42:00,70.3,61.3,30.13,ESE,122,0.0,10.0,73,0.00,,,0.00,0.0,meteohub,2013-01-27 23:42:00,
2013-01-27 17:47:00,70.3,61.3,30.13,ESE,121,0.0,10.0,73,0.00,,,0.00,0.0,meteohub,2013-01-27 23:47:00,
2013-01-27 17:52:00,70.2,61.5,30.13,ESE,114,0.0,10.0,74,0.00,,,0.00,0.0,meteohub,2013-01-27 23:52:00,
2013-01-27 17:57:00,70.0,61.3,30.13,ESE,113,0.0,5.0,74,0.00,,,0.00,0.0,meteohub,2013-01-27 23:57:00,
2013-01-27 18:02:00,69.8,61.5,30.13,ESE,111,2.0,5.0,75,0.00,,,0.00,0.0,meteohub,2013-01-28 00:02:00,
2013-01-27 18:07:00,69.6,61.3,30.13,ESE,108,0.0,4.0,75,0.00,,,0.00,0.0,meteohub,2013-01-28 00:07:00,
2013-01-27 18:12:00,69.4,61.2,30.13,ESE,110,0.0,4.0,75,0.00,,,0.00,0.0,meteohub,2013-01-28 00:12:00,
2013-01-27 18:17:00,69.4,61.2,30.13,NE,41,2.0,4.0,75,0.00,,,0.00,0.0,meteohub,2013-01-28 00:17:00,
2013-01-27 18:22:00,69.4,61.5,30.12,ENE,65,2.0,4.0,76,0.00,,,0.00,0.0,meteohub,2013-01-28 00:22:00,
2013-01-27 18:27:00,69.3,61.3,30.12,NE,53,4.0,4.0,76,0.00,,,0.00,0.0,meteohub,2013-01-28 00:27:00,
2013-01-27 18:32:00,69.3,61.3,30.12,NNE,31,3.0,10.0,76,0.00,,,0.00,0.0,meteohub,2013-01-28 00:32:00,
2013-01-27 18:37:00,69.3,61.7,30.12,NE,46,0.0,10.0,77,0.00,,,0.00,0.0,meteohub,2013-01-28 00:37:00,
2013-01-27 18:42:00,69.1,61.9,30.12,ENE,65,4.0,9.0,78,0.00,,,0.00,0.0,meteohub,2013-01-28 00:42:00,
2013-01-27 18:47:00,68.9,61.7,30.12,ENE,75,2.0,9.0,78,0.00,,,0.00,0.0,meteohub,2013-01-28 00:47:00,
2013-01-27 18:52:00,68.7,61.9,30.13,ESE,106,0.0,9.0,79,0.00,,,0.00,0.0,meteohub,2013-01-28 00:52:00,
2013-01-27 18:57:00,68.5,61.7,30.13,NE,40,0.0,7.0,79,0.00,,,0.00,0.0,meteohub,2013-01-28 00:57:00,
2013-01-27 19:02:00,68.5,61.7,30.13,East,79,0.0,7.0,79,0.00,,,0.00,0.0,meteohub,2013-01-28 01:02:00,
2013-01-27 19:07:00,68.4,61.9,30.13,East,91,0.0,5.0,80,0.00,,,0.00,0.0,meteohub,2013-01-28 01:07:00,
2013-01-27 19:12:00,68.2,62.1,30.13,East,89,3.0,5.0,81,0.00,,,0.00,0.0,meteohub,2013-01-28 01:12:00,
2013-01-27 19:17:00,68.2,62.1,30.14,NE,38,0.0,5.0,81,0.00,,,0.00,0.0,meteohub,2013-01-28 01:17:00,
2013-01-27 19:22:00,68.2,62.1,30.13,East,81,3.0,5.0,81,0.00,,,0.00,0.0,meteohub,2013-01-28 01:22:00,
2013-01-27 19:27:00,68.2,62.1,30.13,ESE,110,2.0,10.0,81,0.00,,,0.00,0.0,meteohub,2013-01-28 01:27:00,
2013-01-27 19:32:00,68.0,62.2,30.13,East,86,4.0,10.0,82,0.00,,,0.00,0.0,meteohub,2013-01-28 01:32:00,
2013-01-27 19:37:00,67.8,62.1,30.13,NE,50,0.0,10.0,82,0.00,,,0.00,0.0,meteohub,2013-01-28 01:37:00,
2013-01-27 19:42:00,67.8,62.1,30.12,NE,52,2.0,10.0,82,0.00,,,0.00,0.0,meteohub,2013-01-28 01:42:00,
2013-01-27 19:47:00,67.8,62.1,30.13,East,92,1.0,6.0,82,0.00,,,0.00,0.0,meteohub,2013-01-28 01:47:00,
2013-01-27 19:52:00,67.6,61.9,30.13,North,6,0.0,6.0,82,0.00,,,0.00,0.0,meteohub,2013-01-28 01:52:00,
2013-01-27 19:57:00,67.6,62.2,30.13,East,92,0.0,6.0,83,0.00,,,0.00,0.0,meteohub,2013-01-28 01:57:00,
2013-01-27 20:02:00,67.6,62.2,30.12,ENE,66,1.0,6.0,83,0.00,,,0.00,0.0,meteohub,2013-01-28 02:02:00,
2013-01-27 20:07:00,67.5,62.1,30.13,NNE,33,3.0,7.0,83,0.00,,,0.00,0.0,meteohub,2013-01-28 02:07:00,
2013-01-27 20:12:00,67.5,62.1,30.13,ENE,57,0.0,7.0,83,0.00,,,0.00,0.0,meteohub,2013-01-28 02:12:00,
2013-01-27 20:17:00,67.3,61.9,30.14,ESE,119,1.0,7.0,83,0.00,,,0.00,0.0,meteohub,2013-01-28 02:17:00,
2013-01-27 20:22:00,67.3,62.2,30.13,ESE,111,4.0,7.0,84,0.00,,,0.00,0.0,meteohub,2013-01-28 02:22:00,
2013-01-27 20:27:00,66.9,61.9,30.14,SE,140,0.0,6.0,84,0.00,,,0.00,0.0,meteohub,2013-01-28 02:27:00,
2013-01-27 20:32:00,66.9,61.9,30.14,NE,38,0.0,6.0,84,0.00,,,0.00,0.0,meteohub,2013-01-28 02:32:00,
2013-01-27 20:37:00,66.7,61.7,30.14,ENE,77,0.0,5.0,84,0.00,,,0.00,0.0,meteohub,2013-01-28 02:37:00,
2013-01-27 20:42:00,66.7,62.1,30.14,East,91,3.0,5.0,85,0.00,,,0.00,0.0,meteohub,2013-01-28 02:42:00,
2013-01-27 20:47:00,66.6,61.9,30.14,East,92,0.0,9.0,85,0.00,,,0.00,0.0,meteohub,2013-01-28 02:47:00,
2013-01-27 20:52:00,66.6,61.9,30.14,ENE,68,0.0,9.0,85,0.00,,,0.00,0.0,meteohub,2013-01-28 02:52:00,
2013-01-27 20:57:00,66.6,61.9,30.14,ESE,121,2.0,9.0,85,0.00,,,0.00,0.0,meteohub,2013-01-28 02:57:00,
2013-01-27 21:02:00,66.6,61.9,30.14,ENE,67,0.0,9.0,85,0.00,,,0.00,0.0,meteohub,2013-01-28 03:02:00,
2013-01-27 21:07:00,66.4,61.7,30.14,NE,40,0.0,5.0,85,0.00,,,0.00,0.0,meteohub,2013-01-28 03:07:00,
2013-01-27 21:12:00,66.6,61.9,30.14,East,88,1.0,5.0,85,0.00,,,0.00,0.0,meteohub,2013-01-28 03:12:00,
2013-01-27 21:17:00,66.6,61.9,30.14,NE,49,1.0,4.0,85,0.00,,,0.00,0.0,meteohub,2013-01-28 03:17:00,
2013-01-27 21:22:00,66.4,61.7,30.14,NNE,18,9.0,9.0,85,0.00,,,0.00,0.0,meteohub,2013-01-28 03:22:00,
2013-01-27 21:28:00,66.4,62.1,30.14,ESE,115,0.0,9.0,86,0.00,,,0.00,0.0,meteohub,2013-01-28 03:28:00,
2013-01-27 21:33:00,66.2,61.9,30.15,SE,142,0.0,9.0,86,0.00,,,0.00,0.0,meteohub,2013-01-28 03:33:00,
2013-01-27 21:38:00,66.2,61.9,30.15,East,94,2.0,9.0,86,0.00,,,0.00,0.0,meteohub,2013-01-28 03:38:00,
2013-01-27 21:43:00,66.4,62.1,30.15,ESE,104,0.0,9.0,86,0.00,,,0.00,0.0,meteohub,2013-01-28 03:43:00,
2013-01-27 21:48:00,66.2,61.9,30.15,NE,56,0.0,5.0,86,0.00,,,0.00,0.0,meteohub,2013-01-28 03:48:00,
2013-01-27 21:53:00,66.0,61.7,30.15,East,91,0.0,5.0,86,0.00,,,0.00,0.0,meteohub,2013-01-28 03:53:00,
2013-01-27 21:58:00,66.0,61.7,30.15,NE,50,1.0,5.0,86,0.00,,,0.00,0.0,meteohub,2013-01-28 03:58:00,
2013-01-27 22:03:00,66.2,61.9,30.14,ESE,103,0.0,5.0,86,0.00,,,0.00,0.0,meteohub,2013-01-28 04:03:00,
2013-01-27 22:08:00,66.0,61.7,30.14,NE,52,1.0,6.0,86,0.00,,,0.00,0.0,meteohub,2013-01-28 04:08:00,
2013-01-27 22:13:00,66.0,61.7,30.14,NNE,29,0.0,6.0,86,0.00,,,0.00,0.0,meteohub,2013-01-28 04:13:00,
2013-01-27 22:18:00,65.8,61.5,30.13,NE,39,0.0,6.0,86,0.00,,,0.00,0.0,meteohub,2013-01-28 04:18:00,
2013-01-27 22:23:00,65.8,61.5,30.14,East,98,0.0,6.0,86,0.00,,,0.00,0.0,meteohub,2013-01-28 04:23:00,
2013-01-27 22:28:00,65.7,61.7,30.14,ENE,64,0.0,7.0,87,0.00,,,0.00,0.0,meteohub,2013-01-28 04:28:00,
2013-01-27 22:33:00,65.5,61.5,30.14,ENE,60,2.0,7.0,87,0.00,,,0.00,0.0,meteohub,2013-01-28 04:33:00,
2013-01-27 22:38:00,65.3,61.3,30.14,NE,49,2.0,7.0,87,0.00,,,0.00,0.0,meteohub,2013-01-28 04:38:00,
2013-01-27 22:43:00,65.1,61.2,30.14,ENE,69,1.0,7.0,87,0.00,,,0.00,0.0,meteohub,2013-01-28 04:43:00,
2013-01-27 22:48:00,65.1,61.5,30.14,ENE,63,0.0,5.0,88,0.00,,,0.00,0.0,meteohub,2013-01-28 04:48:00,
2013-01-27 22:53:00,65.1,61.5,30.15,ENE,67,0.0,5.0,88,0.00,,,0.00,0.0,meteohub,2013-01-28 04:53:00,
2013-01-27 22:58:00,65.1,61.5,30.15,ENE,70,0.0,5.0,88,0.00,,,0.00,0.0,meteohub,2013-01-28 04:58:00,
2013-01-27 23:02:00,65.1,61.5,30.15,ENE,76,0.0,5.0,88,0.00,,,0.00,0.0,meteohub,2013-01-28 05:02:00,
2013-01-27 23:03:00,65.1,61.5,30.15,ENE,67,0.0,5.0,88,0.00,,,0.00,0.0,meteohub,2013-01-28 05:03:00,
2013-01-27 23:04:00,65.1,61.5,30.15,NE,40,2.0,5.0,88,0.00,,,0.00,0.0,meteohub,2013-01-28 05:04:00,
2013-01-27 23:09:00,65.3,61.7,30.15,ENE,57,0.0,5.0,88,0.00,,,0.00,0.0,meteohub,2013-01-28 05:09:00,
2013-01-27 23:14:00,65.3,61.7,30.15,NNE,32,0.0,5.0,88,0.00,,,0.00,0.0,meteohub,2013-01-28 05:14:00,
2013-01-27 23:19:00,65.3,61.3,30.15,East,96,0.0,5.0,87,0.00,,,0.00,0.0,meteohub,2013-01-28 05:19:00,
2013-01-27 23:24:00,65.3,61.3,30.15,ENE,77,0.0,5.0,87,0.00,,,0.00,0.0,meteohub,2013-01-28 05:24:00,
2013-01-27 23:29:00,65.3,61.3,30.15,SE,125,0.0,5.0,87,0.00,,,0.00,0.0,meteohub,2013-01-28 05:29:00,
2013-01-27 23:34:00,65.3,61.3,30.15,NE,42,1.0,5.0,87,0.00,,,0.00,0.0,meteohub,2013-01-28 05:34:00,
2013-01-27 23:39:00,65.5,61.5,30.15,NNE,33,1.0,5.0,87,0.00,,,0.00,0.0,meteohub,2013-01-28 05:39:00,
2013-01-27 23:44:00,65.5,61.5,30.15,NE,47,3.0,6.0,87,0.00,,,0.00,0.0,meteohub,2013-01-28 05:44:00,
2013-01-27 23:49:00,65.5,61.5,30.15,NNE,24,0.0,6.0,87,0.00,,,0.00,0.0,meteohub,2013-01-28 05:49:00,
2013-01-27 23:54:00,65.3,61.3,30.15,NNE,23,0.0,4.0,87,0.00,,,0.00,0.0,meteohub,2013-01-28 05:54:00,
2013-01-27 23:59:00,65.3,61.3,30.15,ENE,73,3.0,4.0,87,0.00,,,0.00,0.0,meteohub,2013-01-28 05:59:00,